Rechercher aéroport 
image banner adimage banner ad
image banner ad

DAUA - Adrar / Touat Cheikh Sidi Mohamed Belkebir

Situé à Adrar, Algeria

ICAO - DAUA, IATA - AZR

Données fournies par Airmate  

Information générale

Coordonnées: N27°50'21" W0°11'7"
Élévation : 918 feet MSL.
 
Voir autres Aéroports à Adrar Province

Données opérationnelles

Accessible au public
Heure actuelle UTC:
Heure actuelle locale:
Météo
METAR: DAUA 290100Z 06004KT CAVOK 29/01 Q1012
TAF: TAF DAUA 282300Z 2900/2924 VRB02KT CAVOK BECMG 2909/2912 20010KT
Voir NOTAMs / SUP AIP / TFR affectant cet aéroport [VIEW]
Fréquences de communication: [VIEW]

Pistes:

Identifiant RWYQFULongueur (ft)Largeur (ft)SurfaceLDA (ft)
0440°9843148ASP
22220°9843148

Coordonnées de l'aéroport

Adresse: Adrar Algeria

Vue satellite de DAUA